createdAt,value
2018-12-29T00:00:59.005Z,30.53
2018-12-29T00:03:28.537Z,31.27
2018-12-29T00:05:58.091Z,29.27
2018-12-29T00:08:27.769Z,31.47
2018-12-29T00:10:57.221Z,29.73
2018-12-29T00:13:26.600Z,31.03
2018-12-29T00:15:56.921Z,30.53
2018-12-29T00:18:26.315Z,28.97
2018-12-29T00:20:55.728Z,29.40
2018-12-29T00:23:25.066Z,29.53
2018-12-29T00:25:54.487Z,30.60
2018-12-29T00:28:23.924Z,30.03
2018-12-29T00:30:56.345Z,29.47
2018-12-29T00:33:25.677Z,28.97
2018-12-29T00:35:55.101Z,30.47
2018-12-29T00:38:24.549Z,29.30
2018-12-29T00:40:54.029Z,29.07
2018-12-29T00:43:23.513Z,28.13
2018-12-29T00:45:53.061Z,28.83
2018-12-29T00:48:22.435Z,29.47
2018-12-29T00:50:51.767Z,29.63
2018-12-29T00:53:21.225Z,29.57
2018-12-29T00:55:50.668Z,30.57
2018-12-29T00:58:20.114Z,30.43
2018-12-29T01:00:49.582Z,30.07
2018-12-29T01:03:19.198Z,29.70
2018-12-29T01:05:48.664Z,28.80
2018-12-29T01:08:18.130Z,28.67
2018-12-29T01:10:47.590Z,28.30
2018-12-29T01:13:17.059Z,27.87
2018-12-29T01:15:46.411Z,29.03
2018-12-29T01:18:15.807Z,28.83
2018-12-29T01:20:45.231Z,27.77
2018-12-29T01:23:15.101Z,28.87
2018-12-29T01:25:44.427Z,27.77
2018-12-29T01:28:13.877Z,28.43
2018-12-29T01:30:45.283Z,29.37
2018-12-29T01:33:14.387Z,29.13
2018-12-29T01:35:44.067Z,28.23
2018-12-29T01:38:13.600Z,28.83
2018-12-29T01:40:43.087Z,28.57
2018-12-29T01:43:12.494Z,28.90
2018-12-29T01:45:41.967Z,27.13
2018-12-29T01:48:11.407Z,28.00
2018-12-29T01:50:40.994Z,28.33
2018-12-29T01:53:10.366Z,27.87
2018-12-29T01:55:39.818Z,28.83
2018-12-29T01:58:09.232Z,26.83
2018-12-29T02:00:38.577Z,28.17
2018-12-29T02:03:07.989Z,27.80
2018-12-29T02:05:37.367Z,27.43
2018-12-29T02:08:06.831Z,28.13
2018-12-29T02:10:36.598Z,26.43
2018-12-29T02:13:06.175Z,27.00
2018-12-29T02:15:35.647Z,27.30
2018-12-29T02:18:05.402Z,26.13
2018-12-29T02:20:34.834Z,28.10
2018-12-29T02:23:04.982Z,27.90
2018-12-29T02:25:34.402Z,27.57
2018-12-29T02:28:03.818Z,26.47
2018-12-29T02:30:33.281Z,26.17
2018-12-29T02:33:02.748Z,26.53
2018-12-29T02:35:32.401Z,27.60
2018-12-29T02:38:01.860Z,27.47
2018-12-29T02:40:31.228Z,27.50
2018-12-29T02:43:01.108Z,25.50
2018-12-29T02:45:33.391Z,26.43
2018-12-29T02:48:01.516Z,27.30
2018-12-29T02:50:31.263Z,27.80
2018-12-29T02:53:01.153Z,27.00
2018-12-29T02:55:30.766Z,28.47
2018-12-29T02:58:00.180Z,27.33
2018-12-29T03:00:29.611Z,26.03
2018-12-29T03:02:58.963Z,27.93
2018-12-29T03:05:28.397Z,28.07
2018-12-29T03:07:57.805Z,27.40
2018-12-29T03:10:27.243Z,26.77
2018-12-29T03:12:56.653Z,28.10
2018-12-29T03:15:26.144Z,28.60
2018-12-29T03:17:55.632Z,28.30
2018-12-29T03:20:24.961Z,27.70
2018-12-29T03:22:54.484Z,27.50
2018-12-29T03:25:23.838Z,28.33
2018-12-29T03:27:53.286Z,28.00
2018-12-29T03:30:22.773Z,29.17
2018-12-29T03:32:52.609Z,28.57
2018-12-29T03:35:22.221Z,31.10
2018-12-29T03:37:51.562Z,29.37
2018-12-29T03:40:20.920Z,30.80
2018-12-29T03:42:50.362Z,28.57
2018-12-29T03:45:19.935Z,29.50
2018-12-29T03:47:49.379Z,29.93
2018-12-29T03:50:19.098Z,29.83
2018-12-29T03:52:48.890Z,30.70
2018-12-29T03:55:18.793Z,30.30
2018-12-29T03:57:48.220Z,30.97
2018-12-29T04:00:18.230Z,30.03
2018-12-29T04:02:47.639Z,31.77
2018-12-29T04:05:17.401Z,29.97
2018-12-29T04:07:46.831Z,30.63
2018-12-29T04:10:17.668Z,30.70
2018-12-29T04:13:06.120Z,29.77
2018-12-29T04:15:38.543Z,30.20
2018-12-29T04:18:08.370Z,30.07
2018-12-29T04:20:37.903Z,30.97
2018-12-29T04:23:07.572Z,30.63
2018-12-29T04:25:37.015Z,31.10
2018-12-29T04:28:06.795Z,29.03
2018-12-29T04:30:36.213Z,31.23
2018-12-29T04:33:05.542Z,31.17
2018-12-29T04:35:35.087Z,31.57
2018-12-29T04:38:04.617Z,32.30
2018-12-29T04:40:34.013Z,30.90
2018-12-29T04:43:03.396Z,30.77
2018-12-29T04:45:32.945Z,31.90
2018-12-29T04:48:02.396Z,31.73
2018-12-29T04:50:31.978Z,32.23
2018-12-29T04:53:01.469Z,33.10
2018-12-29T04:55:30.990Z,32.27
2018-12-29T04:58:00.448Z,33.00
2018-12-29T05:00:29.830Z,32.60
2018-12-29T05:02:59.522Z,32.33
2018-12-29T05:05:29.164Z,33.83
2018-12-29T05:07:58.514Z,32.90
2018-12-29T05:10:27.970Z,32.60
2018-12-29T05:12:57.359Z,33.17
2018-12-29T05:15:26.878Z,31.77
2018-12-29T05:17:56.192Z,34.70
2018-12-29T05:20:25.519Z,34.13
2018-12-29T05:22:55.291Z,34.53
2018-12-29T05:25:24.649Z,32.53
2018-12-29T05:27:54.071Z,32.20
2018-12-29T05:30:23.555Z,32.20
2018-12-29T05:32:52.965Z,31.87
2018-12-29T05:35:22.300Z,34.00
2018-12-29T05:37:51.834Z,34.47
2018-12-29T05:40:21.212Z,33.80
2018-12-29T05:42:50.671Z,35.23
2018-12-29T05:45:20.426Z,35.07
2018-12-29T05:47:50.192Z,33.70
2018-12-29T05:50:19.546Z,33.90
2018-12-29T05:52:48.971Z,33.90
2018-12-29T05:55:18.427Z,34.50
2018-12-29T05:57:47.838Z,35.60
2018-12-29T06:00:17.227Z,34.87
2018-12-29T06:02:46.670Z,35.10
2018-12-29T06:05:16.101Z,34.80
2018-12-29T06:07:45.521Z,33.77
2018-12-29T06:10:14.901Z,35.57
2018-12-29T06:12:45.363Z,35.77
2018-12-29T06:15:15.071Z,35.20
2018-12-29T06:17:44.518Z,36.23
2018-12-29T06:20:13.955Z,35.80
2018-12-29T06:22:43.350Z,37.80
2018-12-29T06:25:12.788Z,37.30
2018-12-29T06:27:42.290Z,36.00
2018-12-29T06:30:11.713Z,36.07
2018-12-29T06:32:41.078Z,34.63
2018-12-29T06:35:10.524Z,36.53
2018-12-29T06:37:39.970Z,38.33
2018-12-29T06:40:09.392Z,37.13
2018-12-29T06:42:38.833Z,36.37
2018-12-29T06:45:08.240Z,36.80
2018-12-29T06:47:37.650Z,37.50
2018-12-29T06:50:07.452Z,37.43
2018-12-29T06:52:36.799Z,35.97
2018-12-29T06:55:06.135Z,36.93
2018-12-29T06:57:35.573Z,36.17
2018-12-29T07:00:05.106Z,36.67
2018-12-29T07:02:34.605Z,37.00
2018-12-29T07:05:04.169Z,35.03
2018-12-29T07:07:34.509Z,36.07
2018-12-29T07:10:03.973Z,35.90
2018-12-29T07:12:33.443Z,36.47
2018-12-29T07:15:02.954Z,37.17
2018-12-29T07:17:32.756Z,36.80
2018-12-29T07:20:02.198Z,37.13
2018-12-29T07:22:31.629Z,35.17
2018-12-29T07:25:01.076Z,36.27
2018-12-29T07:27:30.736Z,35.90
2018-12-29T07:30:00.524Z,36.03
2018-12-29T07:32:30.036Z,35.63
2018-12-29T07:34:59.506Z,35.73
2018-12-29T07:37:29.004Z,36.00
2018-12-29T07:39:58.552Z,36.83
2018-12-29T07:42:28.016Z,37.47
2018-12-29T07:44:57.454Z,36.70
2018-12-29T07:47:26.867Z,34.47
2018-12-29T07:49:56.673Z,35.73
2018-12-29T07:52:26.809Z,39.43
2018-12-29T07:54:56.274Z,37.90
2018-12-29T07:57:25.701Z,37.23
2018-12-29T07:59:55.085Z,38.67
2018-12-29T08:02:24.526Z,38.20
2018-12-29T08:04:53.963Z,37.67
2018-12-29T08:07:23.325Z,37.00
2018-12-29T08:09:52.765Z,37.50
2018-12-29T08:12:22.154Z,38.30
2018-12-29T08:14:51.589Z,37.43
2018-12-29T08:17:20.943Z,39.07
2018-12-29T08:19:50.367Z,37.37
2018-12-29T08:22:19.733Z,35.83
2018-12-29T08:24:49.207Z,37.60
2018-12-29T08:27:18.711Z,37.07
2018-12-29T08:29:48.437Z,36.67
2018-12-29T08:32:17.891Z,37.03
2018-12-29T08:34:47.385Z,34.53
2018-12-29T08:37:17.549Z,35.07
2018-12-29T08:39:46.983Z,34.23
2018-12-29T08:42:16.365Z,34.57
2018-12-29T08:44:45.848Z,34.43
2018-12-29T08:47:15.221Z,34.83
2018-12-29T08:49:44.575Z,35.00
2018-12-29T08:52:14.008Z,34.20
2018-12-29T08:54:43.516Z,32.73
2018-12-29T08:57:12.903Z,32.33
2018-12-29T08:59:42.349Z,30.70
2018-12-29T09:02:12.203Z,31.07
2018-12-29T09:04:41.697Z,32.63
2018-12-29T09:07:11.117Z,30.40
2018-12-29T09:09:40.581Z,31.37
2018-12-29T09:12:10.017Z,31.13
2018-12-29T09:14:39.441Z,29.17
2018-12-29T09:17:12.234Z,29.60
2018-12-29T09:19:39.993Z,28.27
2018-12-29T09:22:09.495Z,28.33
2018-12-29T09:24:38.938Z,28.43
2018-12-29T09:27:08.328Z,27.67
2018-12-29T09:29:37.764Z,25.53
2018-12-29T09:32:07.102Z,27.03
2018-12-29T09:34:36.565Z,26.80
2018-12-29T09:37:06.014Z,26.70
2018-12-29T09:39:35.569Z,28.03
2018-12-29T09:42:04.965Z,26.50
2018-12-29T09:44:34.431Z,28.20
2018-12-29T09:47:03.804Z,27.47
2018-12-29T09:49:33.311Z,28.70
2018-12-29T09:52:02.671Z,26.87
2018-12-29T09:54:32.151Z,27.90
2018-12-29T09:57:01.786Z,29.17
2018-12-29T09:59:31.196Z,28.63
2018-12-29T10:02:00.662Z,26.60
2018-12-29T10:04:30.081Z,27.47
2018-12-29T10:06:59.520Z,28.07
2018-12-29T10:09:31.813Z,30.23
2018-12-29T10:12:01.213Z,28.20
2018-12-29T10:14:30.595Z,29.73
2018-12-29T10:17:00.242Z,29.23
2018-12-29T10:19:30.024Z,30.30
2018-12-29T10:21:59.561Z,27.97
2018-12-29T10:24:29.002Z,27.87
2018-12-29T10:26:58.426Z,29.27
2018-12-29T10:29:27.849Z,28.13
2018-12-29T10:31:57.315Z,29.23
2018-12-29T10:34:26.731Z,28.83
2018-12-29T10:36:56.171Z,29.03
2018-12-29T10:39:25.982Z,28.00
2018-12-29T10:41:55.365Z,29.37
2018-12-29T10:44:24.868Z,28.17
2018-12-29T10:46:54.401Z,29.23
2018-12-29T10:49:23.803Z,28.73
2018-12-29T10:51:54.094Z,30.53
2018-12-29T10:54:23.537Z,29.37
2018-12-29T10:56:53.027Z,28.43
2018-12-29T10:59:22.406Z,29.73
2018-12-29T11:01:52.903Z,29.87
2018-12-29T11:04:22.742Z,29.27
2018-12-29T11:06:52.333Z,32.13
2018-12-29T11:09:21.759Z,28.73
2018-12-29T11:11:55.155Z,30.10
2018-12-29T11:14:25.875Z,30.60
2018-12-29T11:16:55.625Z,28.67
2018-12-29T11:19:25.070Z,28.73
2018-12-29T11:21:54.508Z,29.00
2018-12-29T11:24:23.956Z,28.40
2018-12-29T11:26:53.310Z,28.83
2018-12-29T11:29:22.700Z,28.77
2018-12-29T11:31:52.273Z,29.40
2018-12-29T11:34:21.711Z,28.17
2018-12-29T11:36:51.145Z,29.90
2018-12-29T11:39:20.827Z,27.17
2018-12-29T11:41:50.760Z,27.83
2018-12-29T11:44:20.197Z,27.93
2018-12-29T11:46:50.053Z,27.20
2018-12-29T11:49:20.050Z,27.60
2018-12-29T11:51:50.082Z,27.80
2018-12-29T11:54:19.551Z,27.63
2018-12-29T11:56:49.013Z,29.13
2018-12-29T11:59:18.461Z,26.97
2018-12-29T12:01:47.923Z,28.07
2018-12-29T12:04:17.351Z,26.77
2018-12-29T12:06:46.771Z,27.60
2018-12-29T12:09:16.498Z,27.20
2018-12-29T12:11:45.908Z,29.13
2018-12-29T12:14:15.518Z,26.47
2018-12-29T12:16:45.243Z,27.73
2018-12-29T12:19:15.112Z,27.63
2018-12-29T12:21:44.533Z,25.73
2018-12-29T12:24:13.958Z,24.07
2018-12-29T12:26:43.749Z,26.60
2018-12-29T12:29:13.161Z,24.80
2018-12-29T12:31:42.931Z,26.10
2018-12-29T12:34:12.647Z,26.43
2018-12-29T12:36:45.456Z,25.83
2018-12-29T12:39:14.871Z,26.70
2018-12-29T12:41:46.971Z,25.47
2018-12-29T12:44:16.419Z,25.20
2018-12-29T12:46:45.847Z,26.03
2018-12-29T12:49:15.517Z,25.07
2018-12-29T12:51:44.945Z,24.23
2018-12-29T12:54:14.775Z,24.70
2018-12-29T12:56:44.229Z,24.77
2018-12-29T12:59:13.761Z,25.13
2018-12-29T13:01:43.331Z,23.77
2018-12-29T13:04:13.829Z,24.30
2018-12-29T13:06:43.261Z,25.47
2018-12-29T13:09:13.208Z,24.53
2018-12-29T13:11:42.632Z,24.43
2018-12-29T13:14:12.443Z,24.67
2018-12-29T13:16:41.865Z,24.90
2018-12-29T13:19:11.828Z,24.17
2018-12-29T13:21:41.563Z,23.63
2018-12-29T13:24:11.030Z,23.30
2018-12-29T13:26:40.507Z,23.77
2018-12-29T13:29:10.070Z,24.73
2018-12-29T13:31:39.525Z,23.40
2018-12-29T13:34:08.940Z,24.23
2018-12-29T13:36:38.589Z,23.27
2018-12-29T13:39:08.722Z,25.20
2018-12-29T13:41:38.233Z,26.40
2018-12-29T13:44:08.159Z,26.70
2018-12-29T13:46:37.836Z,25.90
2018-12-29T13:49:07.255Z,28.60
2018-12-29T13:51:37.073Z,27.77
2018-12-29T13:54:06.503Z,27.43
2018-12-29T13:56:35.951Z,29.53
2018-12-29T13:59:05.380Z,28.33
2018-12-29T14:01:34.787Z,28.43
2018-12-29T14:04:04.693Z,30.00
2018-12-29T14:06:34.374Z,28.90
2018-12-29T14:09:05.074Z,29.43
2018-12-29T14:11:34.837Z,28.40
2018-12-29T14:14:04.289Z,29.10
2018-12-29T14:16:33.717Z,29.43
2018-12-29T14:19:03.155Z,29.40
2018-12-29T14:21:32.641Z,28.50
2018-12-29T14:24:02.420Z,29.23
2018-12-29T14:26:31.833Z,29.43
2018-12-29T14:29:01.821Z,27.33
2018-12-29T14:31:31.240Z,27.03
2018-12-29T14:34:00.629Z,28.27
2018-12-29T14:36:30.084Z,26.80
2018-12-29T14:38:59.468Z,26.90
2018-12-29T14:41:28.878Z,26.07
2018-12-29T14:43:58.468Z,27.47
2018-12-29T14:46:27.886Z,24.40
2018-12-29T14:48:57.290Z,24.97
2018-12-29T14:51:26.690Z,25.63
2018-12-29T14:53:56.121Z,23.27
2018-12-29T14:56:25.501Z,22.47
2018-12-29T14:58:54.909Z,23.97
2018-12-29T15:01:24.370Z,22.87
2018-12-29T15:03:54.517Z,22.50
2018-12-29T15:06:23.920Z,22.33
2018-12-29T15:08:53.470Z,21.70
2018-12-29T15:11:22.892Z,22.17
2018-12-29T15:13:52.296Z,22.47
2018-12-29T15:16:21.708Z,21.93
2018-12-29T15:18:51.137Z,20.23
2018-12-29T15:21:21.439Z,21.13
2018-12-29T15:23:50.869Z,19.47
2018-12-29T15:26:20.631Z,20.10
2018-12-29T15:28:50.040Z,20.00
2018-12-29T15:31:19.722Z,19.70
2018-12-29T15:33:49.185Z,19.13
2018-12-29T15:36:18.607Z,18.63
2018-12-29T15:38:48.246Z,17.73
2018-12-29T15:41:17.635Z,18.50
2018-12-29T15:43:47.861Z,17.37
2018-12-29T15:46:17.261Z,18.33
2018-12-29T15:48:51.078Z,18.27
2018-12-29T15:51:17.954Z,17.90
2018-12-29T15:53:47.377Z,18.30
2018-12-29T15:56:17.176Z,19.10
2018-12-29T15:58:46.538Z,17.97
2018-12-29T16:01:16.144Z,18.93
2018-12-29T16:03:45.527Z,18.43
2018-12-29T16:06:14.954Z,17.87
2018-12-29T16:08:44.841Z,18.50
2018-12-29T16:11:14.270Z,19.30
2018-12-29T16:13:43.862Z,18.03
2018-12-29T16:16:13.616Z,18.30
2018-12-29T16:18:43.040Z,19.47
2018-12-29T16:21:12.517Z,19.33
2018-12-29T16:23:41.942Z,20.40
2018-12-29T16:26:12.832Z,20.50
2018-12-29T16:28:42.397Z,21.47
2018-12-29T16:31:12.476Z,20.67
2018-12-29T16:33:42.321Z,22.20
2018-12-29T16:36:12.215Z,20.87
2018-12-29T16:38:41.642Z,22.13
2018-12-29T16:41:11.053Z,20.77
2018-12-29T16:43:40.691Z,21.20
2018-12-29T16:46:10.101Z,21.97
2018-12-29T16:48:39.610Z,21.93
2018-12-29T16:51:09.003Z,22.00
2018-12-29T16:53:38.436Z,21.17
2018-12-29T16:56:07.857Z,20.73
2018-12-29T16:58:37.342Z,20.60
2018-12-29T17:01:06.754Z,19.30
2018-12-29T17:03:36.153Z,20.07
2018-12-29T17:06:05.550Z,20.07
2018-12-29T17:08:34.982Z,20.23
2018-12-29T17:11:04.406Z,19.00
2018-12-29T17:13:34.152Z,18.70
2018-12-29T17:16:03.539Z,18.13
2018-12-29T17:18:33.241Z,18.20
2018-12-29T17:21:02.879Z,18.77
2018-12-29T17:23:32.278Z,18.00
2018-12-29T17:26:01.701Z,17.37
2018-12-29T17:28:31.267Z,15.60
2018-12-29T17:31:01.006Z,14.37
2018-12-29T17:33:30.407Z,14.00
2018-12-29T17:35:59.800Z,12.00
2018-12-29T17:38:29.208Z,12.53
2018-12-29T17:40:59.322Z,10.60
2018-12-29T17:43:28.730Z,11.37
2018-12-29T17:45:58.142Z,9.07
2018-12-29T17:48:27.814Z,8.60
2018-12-29T17:50:57.235Z,9.70
2018-12-29T17:53:26.884Z,8.23
2018-12-29T17:55:56.938Z,8.80
2018-12-29T17:58:26.330Z,8.40
2018-12-29T18:00:55.731Z,7.23
2018-12-29T18:03:25.153Z,6.37
2018-12-29T18:05:55.739Z,6.30
2018-12-29T18:08:25.154Z,5.20
2018-12-29T18:10:54.560Z,5.53
2018-12-29T18:13:24.095Z,4.60
2018-12-29T18:15:53.512Z,5.20
2018-12-29T18:18:22.884Z,3.80
2018-12-29T18:20:52.343Z,5.23
2018-12-29T18:23:21.767Z,4.33
2018-12-29T18:25:52.667Z,4.10
2018-12-29T18:28:22.230Z,4.73
2018-12-29T18:30:51.593Z,3.20
2018-12-29T18:33:21.408Z,3.80
2018-12-29T18:35:51.119Z,3.27
2018-12-29T18:38:20.544Z,3.10
2018-12-29T18:40:49.930Z,2.70
2018-12-29T18:43:19.340Z,3.03
2018-12-29T18:45:49.108Z,3.00
2018-12-29T18:48:18.484Z,2.77
2018-12-29T18:50:48.094Z,3.57
2018-12-29T18:53:17.485Z,3.30
2018-12-29T18:55:46.894Z,2.87
2018-12-29T18:58:16.298Z,2.77
2018-12-29T19:00:45.799Z,2.30
2018-12-29T19:03:15.574Z,2.87
2018-12-29T19:05:44.983Z,3.07
2018-12-29T19:08:14.830Z,3.33
2018-12-29T19:10:44.230Z,3.93
2018-12-29T19:13:13.994Z,3.30
2018-12-29T19:15:44.698Z,3.60
2018-12-29T19:18:14.466Z,3.43
2018-12-29T19:20:45.190Z,2.87
2018-12-29T19:23:14.901Z,3.67
2018-12-29T19:25:44.514Z,2.97
2018-12-29T19:28:14.320Z,2.60
2018-12-29T19:30:43.711Z,2.77
2018-12-29T19:33:14.251Z,3.67
2018-12-29T19:35:43.635Z,3.37
2018-12-29T19:38:13.439Z,2.90
2018-12-29T19:40:43.593Z,3.40
2018-12-29T19:43:13.321Z,2.80
2018-12-29T19:46:04.731Z,2.60
2018-12-29T19:48:34.215Z,2.50
2018-12-29T19:51:03.614Z,2.37
2018-12-29T19:53:33.305Z,1.87
2018-12-29T19:56:02.817Z,2.20
2018-12-29T19:58:32.183Z,2.30
2018-12-29T20:01:01.610Z,2.50
2018-12-29T20:03:31.482Z,2.80
2018-12-29T20:06:21.756Z,2.50
2018-12-29T20:08:51.225Z,2.43
2018-12-29T20:11:46.958Z,2.83
2018-12-29T20:14:43.915Z,3.07
2018-12-29T20:17:13.772Z,2.87
2018-12-29T20:19:43.950Z,2.90
2018-12-29T20:22:49.351Z,2.80
2018-12-29T20:25:18.791Z,3.13
2018-12-29T20:28:09.616Z,3.30
2018-12-29T20:30:39.001Z,3.40
2018-12-29T20:33:38.625Z,3.40
2018-12-29T20:36:28.907Z,5.03
2018-12-29T20:39:20.307Z,4.00
2018-12-29T20:42:13.428Z,4.70
2018-12-29T20:45:04.776Z,4.17
2018-12-29T20:47:34.228Z,4.63
2018-12-29T20:50:09.552Z,4.70
2018-12-29T20:53:01.984Z,4.97
2018-12-29T20:55:32.000Z,4.60
2018-12-29T20:58:25.169Z,3.63
2018-12-29T21:00:54.554Z,5.13
2018-12-29T21:03:50.620Z,3.80
2018-12-29T21:06:20.207Z,4.00
2018-12-29T21:08:49.642Z,4.23
2018-12-29T21:11:43.260Z,3.57
2018-12-29T21:14:12.696Z,3.10
2018-12-29T21:16:42.094Z,3.47
2018-12-29T21:19:11.519Z,3.80
2018-12-29T21:21:41.335Z,3.30
2018-12-29T21:24:12.390Z,2.70
2018-12-29T21:26:41.879Z,2.83
2018-12-29T21:29:11.281Z,2.80
2018-12-29T21:31:40.734Z,3.10
2018-12-29T21:34:10.125Z,2.90
2018-12-29T21:36:39.675Z,2.80
2018-12-29T21:39:09.115Z,2.80
2018-12-29T21:41:38.501Z,2.30
2018-12-29T21:44:08.290Z,2.70
2018-12-29T21:46:37.696Z,2.67
2018-12-29T21:49:07.132Z,2.40
2018-12-29T21:51:36.529Z,2.80
2018-12-29T21:54:06.242Z,2.80
2018-12-29T21:56:35.686Z,2.50
2018-12-29T21:59:05.099Z,3.13
2018-12-29T22:01:34.500Z,2.50
2018-12-29T22:04:03.895Z,2.83
2018-12-29T22:06:33.675Z,2.77
2018-12-29T22:09:03.110Z,2.40
2018-12-29T22:11:32.523Z,2.17
2018-12-29T22:14:02.152Z,4.60
2018-12-29T22:16:31.805Z,3.07
2018-12-29T22:19:01.443Z,2.70
2018-12-29T22:21:30.951Z,3.33
2018-12-29T22:24:00.442Z,2.30
2018-12-29T22:26:30.879Z,2.23
2018-12-29T22:29:00.298Z,2.37
2018-12-29T22:31:29.723Z,2.23
2018-12-29T22:33:59.158Z,2.13
2018-12-29T22:36:28.545Z,2.30
2018-12-29T22:38:57.969Z,1.63
2018-12-29T22:41:27.785Z,1.83
2018-12-29T22:43:57.209Z,1.50
2018-12-29T22:46:27.009Z,1.93
2018-12-29T22:48:56.419Z,1.73
2018-12-29T22:51:26.260Z,1.73
2018-12-29T22:53:55.676Z,1.50
2018-12-29T22:56:25.070Z,1.80
2018-12-29T22:58:54.503Z,2.20
2018-12-29T23:01:25.163Z,2.00
2018-12-29T23:03:54.987Z,2.00
2018-12-29T23:06:24.416Z,2.40
2018-12-29T23:08:53.824Z,2.60
2018-12-29T23:11:23.208Z,2.23
2018-12-29T23:13:52.609Z,2.53
2018-12-29T23:16:22.006Z,2.70
2018-12-29T23:18:52.028Z,2.30
2018-12-29T23:21:21.450Z,2.10
2018-12-29T23:23:50.900Z,2.87
2018-12-29T23:26:20.320Z,2.20
2018-12-29T23:28:50.121Z,2.33
2018-12-29T23:31:19.627Z,2.17
2018-12-29T23:33:49.268Z,1.47
2018-12-29T23:36:19.353Z,2.23
2018-12-29T23:38:48.808Z,2.13
2018-12-29T23:41:18.239Z,3.83
2018-12-29T23:43:47.943Z,3.37
2018-12-29T23:46:18.094Z,3.70
2018-12-29T23:48:47.506Z,3.93
2018-12-29T23:51:17.488Z,4.30
2018-12-29T23:53:46.884Z,3.90
2018-12-29T23:56:17.128Z,4.10
2018-12-29T23:58:47.028Z,2.97
